Time;durP1;ratioP1;P1;durP2;ratioP2;P2;SDS_P1;SDS_P2;PMS_P1;PMS_P2;Temp;Humidity;BMP_temperature;BMP_pressure;BME280_temperature;BME280_humidity;BME280_pressure;Samples;Min_cycle;Max_cycle;Signal;HPM_P1;HPM_P2
2021/04/29 00:01:14;;;;;;;0.20;0.20;;;12.60;99.90;;;;;;5082476;28;20258;-82
2021/04/29 00:03:41;;;;;;;0.93;0.40;;;12.60;99.90;;;;;;5064892;28;20174;-82
2021/04/29 00:06:07;;;;;;;0.90;0.20;;;12.50;99.90;;;;;;5063050;28;20222;-82
2021/04/29 00:08:33;;;;;;;1.23;0.60;;;12.50;99.90;;;;;;5067212;28;20663;-82
2021/04/29 00:11:00;;;;;;;0.30;0.30;;;12.50;99.90;;;;;;5082446;28;20347;-82
2021/04/29 00:13:25;;;;;;;0.03;0.03;;;12.40;99.90;;;;;;5062580;28;20263;-82
2021/04/29 00:15:51;;;;;;;0.67;0.67;;;12.40;99.90;;;;;;5066250;28;20593;-81
2021/04/29 00:18:17;;;;;;;4.93;0.30;;;12.40;99.90;;;;;;5063506;28;20176;-82
2021/04/29 00:20:44;;;;;;;1.83;1.40;;;12.30;99.90;;;;;;5077836;28;20205;-82
2021/04/29 00:23:11;;;;;;;0.23;0.23;;;12.30;99.90;;;;;;5060440;28;20271;-82
2021/04/29 00:25:37;;;;;;;0.20;0.20;;;12.30;99.90;;;;;;5059145;28;20208;-82
2021/04/29 00:28:03;;;;;;;0.23;0.23;;;12.30;99.90;;;;;;5061825;28;20652;-82
2021/04/29 00:30:29;;;;;;;0.23;0.23;;;12.30;99.90;;;;;;5067640;28;20205;-82
2021/04/29 00:32:54;;;;;;;0.10;0.10;;;12.30;99.90;;;;;;5064152;28;20200;-82
2021/04/29 00:35:20;;;;;;;0.30;0.30;;;12.40;99.90;;;;;;5063811;28;20181;-81
2021/04/29 00:37:47;;;;;;;0.10;0.10;;;12.40;99.90;;;;;;5080835;28;20259;-81
2021/04/29 00:40:14;;;;;;;0.10;0.10;;;12.40;99.90;;;;;;5080358;28;20255;-81
2021/04/29 00:42:41;;;;;;;0.10;0.10;;;12.30;99.90;;;;;;5060806;28;20207;-81
2021/04/29 00:45:12;;;;;;;0.20;0.20;;;12.40;99.90;;;;;;5081350;28;20234;-82
2021/04/29 00:47:39;;;;;;;0.30;0.30;;;12.30;99.90;;;;;;5080723;28;20193;-82
2021/04/29 00:50:09;;;;;;;1.27;0.20;;;12.40;99.90;;;;;;5061833;28;20264;-82
2021/04/29 00:52:35;;;;;;;0.10;0.10;;;12.40;99.90;;;;;;5058041;28;20270;-82
2021/04/29 00:55:01;;;;;;;0.40;0.40;;;12.30;99.90;;;;;;5060982;28;20276;-82
2021/04/29 00:57:26;;;;;;;0.20;0.20;;;12.30;99.90;;;;;;5087251;28;20188;-83
2021/04/29 00:59:57;;;;;;;0.30;0.30;;;12.30;99.90;;;;;;5087726;28;20203;-85
2021/04/29 01:02:24;;;;;;;0.73;0.60;;;12.40;99.90;;;;;;5062695;28;20188;-86
2021/04/29 01:05:12;;;;;;;0.10;0.10;;;12.30;99.90;;;;;;5064680;28;20233;-84
2021/04/29 01:07:45;;;;;;;0.17;0.17;;;12.30;99.90;;;;;;5061096;28;20195;-84
2021/04/29 01:10:21;;;;;;;0.10;0.10;;;12.30;99.90;;;;;;5077887;28;20258;-82
2021/04/29 01:12:53;;;;;;;0.40;0.40;;;12.20;99.90;;;;;;5083473;28;20265;-82
2021/04/29 01:15:19;;;;;;;0.17;0.17;;;12.10;99.90;;;;;;5064933;28;20182;-83
2021/04/29 01:17:47;;;;;;;0.47;0.30;;;12.00;99.90;;;;;;5081337;28;20174;-83
2021/04/29 01:20:13;;;;;;;0.63;0.30;;;12.00;99.90;;;;;;5081893;28;20210;-83
2021/04/29 01:22:46;;;;;;;0.47;0.33;;;12.10;99.90;;;;;;5063416;28;20238;-82
2021/04/29 01:25:15;;;;;;;0.33;0.33;;;12.10;99.90;;;;;;5072112;28;20189;-82
2021/04/29 01:27:41;;;;;;;0.10;0.10;;;12.00;99.90;;;;;;5066431;28;20183;-83
2021/04/29 01:30:12;;;;;;;0.10;0.10;;;12.10;99.90;;;;;;5088397;28;20208;-84
2021/04/29 01:32:40;;;;;;;0.23;0.23;;;12.10;99.90;;;;;;5064538;28;20188;-83
2021/04/29 01:35:08;;;;;;;0.20;0.20;;;12.20;99.90;;;;;;5071682;28;20185;-83
2021/04/29 01:37:34;;;;;;;0.20;0.20;;;12.20;99.90;;;;;;5087726;28;20178;-83
2021/04/29 01:40:01;;;;;;;1.60;1.50;;;12.10;99.90;;;;;;5090097;28;20215;-83
2021/04/29 01:42:27;;;;;;;0.10;0.10;;;12.20;99.90;;;;;;5068388;28;20230;-84
2021/04/29 01:44:53;;;;;;;0.30;0.30;;;12.20;99.90;;;;;;5067070;28;20169;-84
2021/04/29 01:47:19;;;;;;;0.20;0.20;;;12.10;99.90;;;;;;5064141;28;20263;-84
2021/04/29 01:49:46;;;;;;;0.10;0.10;;;12.20;99.90;;;;;;5082671;28;20251;-83
2021/04/29 01:52:12;;;;;;;2.10;0.50;;;12.10;99.90;;;;;;5087969;28;20194;-83
2021/04/29 01:54:38;;;;;;;0.20;0.20;;;12.00;99.90;;;;;;5064817;28;20226;-83
2021/04/29 01:57:05;;;;;;;0.20;0.20;;;11.90;99.90;;;;;;5088150;28;20652;-83
2021/04/29 01:59:30;;;;;;;0.17;0.17;;;11.90;99.90;;;;;;5068685;28;20181;-83
2021/04/29 02:01:56;;;;;;;0.30;0.30;;;11.90;99.90;;;;;;5084049;28;20210;-83
2021/04/29 02:04:21;;;;;;;0.60;0.20;;;11.70;99.90;;;;;;5083841;28;20180;-84
2021/04/29 02:06:47;;;;;;;0.20;0.20;;;11.70;99.90;;;;;;5057226;28;20257;-83
2021/04/29 02:09:15;;;;;;;0.10;0.10;;;11.80;99.90;;;;;;5069992;28;20679;-83
2021/04/29 02:11:57;;;;;;;0.40;0.17;;;11.90;99.90;;;;;;5088545;28;20703;-81
2021/04/29 02:14:35;;;;;;;0.20;0.20;;;12.10;99.90;;;;;;5071420;28;20317;-84
2021/04/29 02:17:12;;;;;;;0.10;0.10;;;12.10;99.90;;;;;;5083774;28;20224;-84
2021/04/29 02:19:42;;;;;;;0.20;0.20;;;11.90;99.90;;;;;;5078977;28;20187;-80
2021/04/29 02:22:09;;;;;;;0.13;0.13;;;12.10;99.90;;;;;;5062940;28;20193;-81
2021/04/29 02:24:36;;;;;;;0.10;0.10;;;12.10;99.90;;;;;;5082198;28;20189;-81
2021/04/29 02:27:03;;;;;;;0.10;0.10;;;12.10;99.90;;;;;;5077628;28;20216;-80
2021/04/29 02:29:30;;;;;;;0.57;0.50;;;12.20;99.90;;;;;;5061786;28;20204;-81
2021/04/29 02:31:56;;;;;;;0.37;0.27;;;12.10;99.90;;;;;;5082857;28;20242;-81
2021/04/29 02:34:21;;;;;;;0.10;0.10;;;12.20;99.90;;;;;;5063405;28;20216;-81
2021/04/29 02:36:47;;;;;;;0.23;0.23;;;12.10;99.90;;;;;;5060092;28;20190;-81
2021/04/29 02:39:13;;;;;;;0.30;0.30;;;12.00;99.90;;;;;;5064796;28;20188;-82
2021/04/29 02:41:39;;;;;;;0.50;0.20;;;12.00;99.90;;;;;;5058336;28;20577;-81
2021/04/29 02:44:05;;;;;;;0.10;0.10;;;12.10;99.90;;;;;;5066952;28;20188;-82
2021/04/29 02:46:32;;;;;;;0.67;0.30;;;12.10;99.90;;;;;;5084935;28;20671;-81
2021/04/29 02:48:58;;;;;;;0.83;0.30;;;12.00;99.90;;;;;;5078406;28;20191;-82
2021/04/29 02:51:23;;;;;;;0.17;0.17;;;12.10;99.90;;;;;;5078517;28;20220;-81
2021/04/29 02:53:50;;;;;;;0.70;0.20;;;12.00;99.90;;;;;;5067927;28;20297;-81
2021/04/29 02:56:15;;;;;;;1.70;0.30;;;12.00;99.90;;;;;;5062933;28;20616;-82
2021/04/29 02:58:46;;;;;;;0.23;0.20;;;12.10;99.90;;;;;;5083699;28;20177;-81
2021/04/29 03:01:12;;;;;;;0.30;0.30;;;12.10;99.90;;;;;;5078332;28;20223;-81
2021/04/29 03:03:39;;;;;;;0.77;0.50;;;12.10;99.90;;;;;;5063295;28;20270;-80
2021/04/29 03:06:05;;;;;;;0.20;0.20;;;12.20;99.90;;;;;;5070999;28;20196;-80
2021/04/29 03:08:31;;;;;;;0.33;0.33;;;12.10;99.90;;;;;;5079873;28;20672;-80
2021/04/29 03:10:57;;;;;;;0.73;0.43;;;12.20;99.90;;;;;;5067047;28;20220;-82
2021/04/29 03:13:23;;;;;;;0.43;0.27;;;12.10;99.90;;;;;;5086777;28;20191;-81
2021/04/29 03:15:48;;;;;;;0.30;0.30;;;12.20;99.90;;;;;;5071349;28;20189;-80
2021/04/29 03:18:14;;;;;;;1.60;0.70;;;12.20;99.90;;;;;;5084895;28;20649;-82
2021/04/29 03:20:40;;;;;;;0.33;0.30;;;12.20;99.90;;;;;;5080940;28;20213;-81
2021/04/29 03:23:05;;;;;;;0.17;0.17;;;12.10;99.90;;;;;;5080265;28;20191;-80
2021/04/29 03:25:31;;;;;;;0.20;0.20;;;12.10;99.90;;;;;;5061504;28;20249;-81
2021/04/29 03:27:57;;;;;;;0.47;0.20;;;12.20;99.90;;;;;;5063888;28;20189;-81
2021/04/29 03:30:22;;;;;;;0.10;0.10;;;12.20;99.90;;;;;;5059594;28;20337;-81
2021/04/29 03:32:49;;;;;;;1.30;0.40;;;12.20;99.90;;;;;;5080757;28;20177;-80
2021/04/29 03:35:15;;;;;;;0.10;0.10;;;12.00;99.90;;;;;;5079795;28;20208;-81
2021/04/29 03:37:40;;;;;;;0.50;0.50;;;12.00;99.90;;;;;;5078439;28;20209;-81
2021/04/29 03:40:07;;;;;;;0.20;0.20;;;12.00;99.90;;;;;;5079454;28;20210;-80
2021/04/29 03:42:33;;;;;;;0.30;0.30;;;12.00;99.90;;;;;;5061102;28;20182;-82
2021/04/29 03:44:59;;;;;;;0.90;0.90;;;12.00;99.90;;;;;;5079068;28;20197;-81
2021/04/29 03:47:24;;;;;;;0.43;0.43;;;11.90;99.90;;;;;;5063965;28;20185;-80
2021/04/29 03:49:50;;;;;;;0.20;0.10;;;12.00;99.90;;;;;;5059738;28;20209;-81
2021/04/29 03:52:15;;;;;;;0.37;0.37;;;12.00;99.90;;;;;;5063536;28;20203;-81
2021/04/29 03:54:41;;;;;;;0.90;0.57;;;11.90;99.90;;;;;;5064277;28;20548;-82
2021/04/29 03:57:07;;;;;;;0.83;0.40;;;12.00;99.90;;;;;;5061684;28;20570;-81
2021/04/29 03:59:32;;;;;;;2.33;0.20;;;12.00;99.90;;;;;;5082142;28;20188;-81
2021/04/29 04:01:58;;;;;;;0.30;0.30;;;12.00;99.90;;;;;;5067172;28;20206;-81
2021/04/29 04:04:24;;;;;;;0.20;0.20;;;12.00;99.90;;;;;;5059779;28;20275;-80
2021/04/29 04:06:49;;;;;;;0.10;0.10;;;12.00;99.90;;;;;;5084628;28;20654;-81
2021/04/29 04:09:15;;;;;;;0.73;0.73;;;12.00;99.90;;;;;;5066742;28;20291;-80
2021/04/29 04:11:40;;;;;;;0.40;0.40;;;12.00;99.90;;;;;;5060617;28;20681;-81
2021/04/29 04:14:06;;;;;;;0.27;0.20;;;12.00;99.90;;;;;;5060420;28;20192;-81
2021/04/29 04:16:32;;;;;;;0.27;0.27;;;12.10;99.90;;;;;;5073489;28;20181;-81
2021/04/29 04:18:58;;;;;;;0.50;0.50;;;12.10;99.90;;;;;;5068495;28;20182;-80
2021/04/29 04:21:24;;;;;;;0.63;0.40;;;12.20;99.90;;;;;;5066195;28;20584;-80
2021/04/29 04:23:51;;;;;;;0.10;0.10;;;12.10;99.90;;;;;;5079227;28;20701;-81
2021/04/29 04:26:16;;;;;;;0.10;0.10;;;12.00;99.90;;;;;;5062437;28;20276;-80
2021/04/29 04:28:42;;;;;;;0.23;0.23;;;11.90;99.90;;;;;;5060196;28;20268;-81
2021/04/29 04:31:09;;;;;;;0.80;0.60;;;12.00;99.90;;;;;;5079376;28;20219;-86
2021/04/29 04:33:34;;;;;;;0.87;0.47;;;12.10;99.90;;;;;;5066559;28;20185;-84
2021/04/29 04:36:00;;;;;;;1.67;0.40;;;12.20;99.90;;;;;;5079936;28;20185;-83
2021/04/29 04:38:25;;;;;;;0.43;0.43;;;12.20;99.90;;;;;;5086207;28;20180;-83
2021/04/29 04:40:51;;;;;;;0.20;0.20;;;12.30;99.90;;;;;;5057407;28;20210;-84
2021/04/29 04:43:16;;;;;;;0.40;0.27;;;12.30;99.90;;;;;;5080531;28;20184;-80
2021/04/29 04:45:43;;;;;;;0.20;0.20;;;12.20;99.90;;;;;;5059262;28;20177;-79
2021/04/29 04:48:13;;;;;;;0.47;0.47;;;12.20;99.90;;;;;;5060452;28;20222;-79
2021/04/29 04:50:39;;;;;;;0.40;0.40;;;12.20;99.90;;;;;;5061171;28;20205;-84
2021/04/29 04:53:05;;;;;;;0.63;0.40;;;12.30;99.90;;;;;;5063052;28;20553;-83
2021/04/29 04:55:31;;;;;;;0.90;0.57;;;12.20;99.90;;;;;;5074570;28;20188;-80
2021/04/29 04:57:57;;;;;;;0.30;0.30;;;12.10;99.90;;;;;;5060088;28;20208;-81
2021/04/29 05:00:23;;;;;;;0.30;0.30;;;12.20;99.90;;;;;;5063246;28;20207;-81
2021/04/29 05:02:49;;;;;;;0.50;0.50;;;12.30;99.90;;;;;;5066450;28;20563;-81
2021/04/29 05:05:14;;;;;;;0.67;0.50;;;12.40;99.90;;;;;;5063797;28;20183;-83
2021/04/29 05:07:40;;;;;;;0.50;0.50;;;12.40;99.90;;;;;;5061302;28;20267;-81
2021/04/29 05:10:06;;;;;;;0.33;0.33;;;12.40;99.90;;;;;;5064819;28;20706;-84
2021/04/29 05:12:32;;;;;;;0.57;0.57;;;12.50;99.90;;;;;;5076935;28;20214;-81
2021/04/29 05:14:57;;;;;;;1.60;1.07;;;12.50;99.90;;;;;;5068308;28;20200;-81
2021/04/29 05:17:23;;;;;;;0.57;0.43;;;12.50;99.90;;;;;;5088605;28;20182;-81
2021/04/29 05:19:49;;;;;;;0.30;0.30;;;12.60;99.90;;;;;;5080926;28;20185;-81
2021/04/29 05:22:15;;;;;;;0.20;0.20;;;12.70;99.90;;;;;;5096577;28;20207;-81
2021/04/29 05:24:44;;;;;;;1.13;0.30;;;12.60;99.90;;;;;;5077079;28;20174;-81
2021/04/29 05:27:10;;;;;;;0.47;0.47;;;12.60;99.90;;;;;;5078254;28;20233;-83
2021/04/29 05:29:36;;;;;;;1.50;0.50;;;12.60;99.90;;;;;;5072597;28;20216;-80
2021/04/29 05:32:03;;;;;;;0.60;0.60;;;12.50;99.90;;;;;;5059841;28;20204;-80
2021/04/29 05:34:29;;;;;;;0.63;0.47;;;12.60;99.90;;;;;;5066163;28;20203;-81
2021/04/29 05:36:54;;;;;;;0.97;0.60;;;12.70;99.90;;;;;;5062515;28;20210;-81
2021/04/29 05:39:20;;;;;;;0.37;0.37;;;12.70;99.90;;;;;;5084236;28;20628;-82
2021/04/29 05:41:45;;;;;;;0.70;0.70;;;12.80;99.90;;;;;;5085037;28;20225;-81
2021/04/29 05:44:11;;;;;;;0.63;0.63;;;12.60;99.90;;;;;;5062308;28;20192;-81
2021/04/29 05:46:37;;;;;;;0.57;0.30;;;12.60;99.90;;;;;;5057403;28;20205;-83
2021/04/29 05:49:03;;;;;;;0.40;0.40;;;12.50;99.90;;;;;;5069221;28;20203;-81
2021/04/29 05:51:29;;;;;;;0.27;0.27;;;12.40;99.90;;;;;;5079551;28;20220;-83
2021/04/29 05:53:55;;;;;;;1.13;0.47;;;12.40;99.90;;;;;;5066195;28;20176;-83
2021/04/29 05:56:20;;;;;;;0.50;0.50;;;12.40;99.90;;;;;;5065734;28;20188;-83
2021/04/29 05:58:46;;;;;;;0.97;0.97;;;12.60;99.90;;;;;;5065712;28;20185;-83
2021/04/29 06:01:12;;;;;;;0.20;0.20;;;12.60;99.90;;;;;;5084700;28;20215;-84
2021/04/29 06:03:38;;;;;;;0.40;0.40;;;12.80;99.90;;;;;;5070233;28;20656;-86
2021/04/29 06:06:04;;;;;;;0.23;0.23;;;13.00;99.90;;;;;;5073464;28;20184;-87
2021/04/29 06:08:30;;;;;;;0.37;0.37;;;13.00;99.90;;;;;;5085958;28;20195;-86
2021/04/29 06:10:55;;;;;;;0.20;0.20;;;13.00;99.90;;;;;;5061018;28;20238;-92
2021/04/29 06:13:21;;;;;;;0.20;0.20;;;13.10;99.90;;;;;;5073123;28;20542;-85
2021/04/29 06:15:47;;;;;;;1.87;0.83;;;13.20;99.90;;;;;;5066411;28;20192;-85
2021/04/29 06:18:12;;;;;;;2.23;0.30;;;13.40;99.90;;;;;;5071561;28;20180;-86
2021/04/29 06:20:38;;;;;;;0.27;0.27;;;13.60;99.90;;;;;;5079360;28;20209;-85
2021/04/29 06:23:13;;;;;;;0.73;0.33;;;13.90;99.90;;;;;;5066479;28;20567;-85
2021/04/29 06:25:38;;;;;;;0.53;0.47;;;14.10;99.90;;;;;;5062981;28;20216;-85
2021/04/29 06:28:04;;;;;;;0.80;0.80;;;14.00;99.90;;;;;;5086680;28;20225;-85
2021/04/29 06:30:38;;;;;;;1.80;0.63;;;13.90;99.90;;;;;;5069983;28;20218;-86
2021/04/29 06:33:04;;;;;;;0.97;0.47;;;13.70;99.90;;;;;;5068792;28;20247;-85
2021/04/29 06:35:29;;;;;;;0.80;0.43;;;13.90;99.90;;;;;;5091017;28;20197;-85
2021/04/29 06:37:55;;;;;;;0.57;0.50;;;13.90;99.90;;;;;;5071090;28;20182;-85
2021/04/29 06:40:21;;;;;;;1.03;0.90;;;14.10;99.90;;;;;;5066080;28;20250;-85
2021/04/29 06:42:54;;;;;;;0.43;0.43;;;14.10;99.90;;;;;;5094843;28;20188;-86
2021/04/29 06:45:36;;;;;;;0.83;0.40;;;14.20;99.90;;;;;;5081775;28;20187;-86
2021/04/29 06:48:02;;;;;;;0.60;0.60;;;14.30;99.90;;;;;;5090896;28;20187;-86
2021/04/29 06:50:37;;;;;;;0.10;0.10;;;14.70;99.90;;;;;;5078260;28;20334;-85
2021/04/29 06:53:04;;;;;;;0.77;0.40;;;15.10;99.90;;;;;;5086770;28;20186;-85
2021/04/29 06:55:40;;;;;;;0.37;0.37;;;15.30;99.90;;;;;;5069271;28;20179;-86
2021/04/29 06:58:05;;;;;;;0.33;0.33;;;15.60;99.90;;;;;;5072663;28;20236;-84
2021/04/29 07:00:57;;;;;;;0.77;0.60;;;15.80;99.90;;;;;;5089526;28;20196;-84
2021/04/29 07:03:23;;;;;;;1.10;0.90;;;15.40;99.90;;;;;;5087305;28;20904;-84
2021/04/29 07:05:49;;;;;;;3.40;0.93;;;15.20;99.90;;;;;;5087550;28;20187;-84
2021/04/29 07:08:15;;;;;;;1.13;1.07;;;15.20;99.90;;;;;;5088055;28;20563;-84
2021/04/29 07:10:41;;;;;;;1.67;1.10;;;15.20;99.90;;;;;;5087433;28;20223;-83
2021/04/29 07:13:07;;;;;;;0.43;0.43;;;15.10;99.90;;;;;;5087916;28;20186;-84
2021/04/29 07:15:33;;;;;;;2.20;0.77;;;15.30;99.90;;;;;;5082456;28;20267;-80
2021/04/29 07:17:59;;;;;;;0.67;0.67;;;15.20;99.90;;;;;;5079291;28;20200;-80
2021/04/29 07:20:25;;;;;;;0.90;0.80;;;15.20;99.90;;;;;;5064480;28;20238;-80
2021/04/29 07:22:51;;;;;;;1.27;0.80;;;15.20;99.90;;;;;;5086635;28;20218;-81
2021/04/29 07:25:16;;;;;;;0.83;0.83;;;15.10;99.90;;;;;;5074628;28;20210;-81
2021/04/29 07:27:42;;;;;;;1.03;1.00;;;15.00;99.90;;;;;;5068546;28;20211;-83
2021/04/29 07:30:09;;;;;;;0.77;0.67;;;15.10;99.90;;;;;;5067442;28;20619;-82
2021/04/29 07:32:35;;;;;;;1.47;1.00;;;15.30;99.90;;;;;;5060936;28;20201;-81
2021/04/29 07:35:02;;;;;;;1.20;0.47;;;15.20;99.90;;;;;;5070850;28;20188;-82
2021/04/29 07:37:28;;;;;;;0.43;0.40;;;15.20;99.90;;;;;;5061559;28;20192;-83
2021/04/29 07:39:53;;;;;;;1.57;0.43;;;15.10;99.90;;;;;;5063911;28;20223;-82
2021/04/29 07:42:19;;;;;;;0.40;0.40;;;15.10;99.90;;;;;;5068919;28;20193;-82
2021/04/29 07:44:45;;;;;;;0.50;0.50;;;15.20;99.90;;;;;;5062359;28;20231;-81
2021/04/29 07:47:11;;;;;;;0.67;0.63;;;15.30;99.90;;;;;;5064651;28;20217;-81
2021/04/29 07:49:36;;;;;;;0.37;0.37;;;15.30;99.90;;;;;;5083709;28;20276;-83
2021/04/29 07:52:02;;;;;;;1.93;0.83;;;15.70;99.90;;;;;;5059314;28;20227;-81
2021/04/29 07:54:28;;;;;;;1.10;0.53;;;15.90;99.90;;;;;;5077996;28;20181;-82
2021/04/29 07:56:54;;;;;;;2.27;0.80;;;16.10;99.90;;;;;;5062261;28;20173;-82
2021/04/29 07:59:19;;;;;;;0.93;0.77;;;16.20;99.90;;;;;;5085619;28;20204;-81
2021/04/29 08:01:45;;;;;;;1.90;0.73;;;16.40;99.90;;;;;;5064516;28;20201;-80
2021/04/29 08:04:11;;;;;;;1.00;0.90;;;16.50;99.90;;;;;;5057394;28;20188;-83
2021/04/29 08:06:36;;;;;;;0.50;0.50;;;16.50;99.90;;;;;;5086112;28;20557;-80
2021/04/29 08:09:02;;;;;;;1.07;0.57;;;16.30;99.90;;;;;;5075144;28;20657;-80
2021/04/29 08:11:28;;;;;;;0.70;0.70;;;16.20;99.90;;;;;;5073640;28;20192;-80
2021/04/29 08:13:54;;;;;;;0.37;0.37;;;16.10;99.90;;;;;;5074763;28;20175;-83
2021/04/29 08:16:20;;;;;;;1.10;0.83;;;16.10;99.90;;;;;;5060504;28;20571;-80
2021/04/29 08:18:48;;;;;;;0.50;0.50;;;15.80;99.90;;;;;;5070459;28;20187;-81
2021/04/29 08:21:13;;;;;;;0.73;0.67;;;15.80;99.90;;;;;;5069697;28;20214;-82
2021/04/29 08:23:39;;;;;;;2.03;0.30;;;15.80;99.90;;;;;;5058516;28;20185;-80
2021/04/29 08:26:05;;;;;;;0.67;0.37;;;15.60;99.90;;;;;;5076984;28;20206;-82
2021/04/29 08:28:30;;;;;;;1.27;1.17;;;15.50;99.90;;;;;;5052576;28;20275;-82
2021/04/29 08:30:56;;;;;;;1.23;1.10;;;15.30;99.90;;;;;;5060633;28;20219;-85
2021/04/29 08:33:22;;;;;;;0.60;0.60;;;15.10;99.90;;;;;;5072453;28;20203;-82
2021/04/29 08:35:48;;;;;;;0.47;0.43;;;14.90;99.90;;;;;;5057467;28;20179;-81
2021/04/29 08:38:13;;;;;;;0.63;0.50;;;14.90;99.90;;;;;;5080538;28;20190;-80
2021/04/29 08:40:39;;;;;;;0.27;0.27;;;14.80;99.90;;;;;;5070030;28;20214;-80
2021/04/29 08:43:05;;;;;;;0.50;0.50;;;14.70;99.90;;;;;;5058922;28;20577;-80
2021/04/29 08:45:33;;;;;;;0.40;0.40;;;14.80;99.90;;;;;;5062487;28;20183;-81
2021/04/29 08:47:58;;;;;;;1.27;0.40;;;14.90;99.90;;;;;;5078626;28;20219;-83
2021/04/29 08:50:27;;;;;;;0.63;0.60;;;15.00;99.90;;;;;;5061736;28;20318;-82
2021/04/29 08:52:54;;;;;;;1.53;0.83;;;15.00;99.90;;;;;;5088302;28;20195;-82
2021/04/29 08:55:26;;;;;;;0.50;0.40;;;15.10;99.90;;;;;;5075482;28;20263;-80
2021/04/29 08:57:52;;;;;;;0.93;0.50;;;15.30;99.90;;;;;;5055295;28;20556;-80
2021/04/29 09:00:19;;;;;;;0.63;0.63;;;15.40;99.90;;;;;;5059477;28;20201;-81
2021/04/29 09:02:46;;;;;;;0.50;0.47;;;15.60;99.90;;;;;;5099878;28;20377;-81
2021/04/29 09:05:18;;;;;;;0.93;0.60;;;15.70;99.90;;;;;;5083937;28;20196;-81
2021/04/29 09:08:00;;;;;;;1.40;0.60;;;15.80;99.90;;;;;;5062987;28;20208;-81
2021/04/29 09:10:40;;;;;;;2.00;1.30;;;16.00;99.90;;;;;;5068193;28;20212;-84
2021/04/29 09:13:21;;;;;;;0.43;0.43;;;16.00;99.90;;;;;;5060603;28;20183;-82
2021/04/29 09:15:47;;;;;;;0.50;0.50;;;16.20;99.90;;;;;;5066174;28;20184;-81
2021/04/29 09:18:15;;;;;;;0.60;0.60;;;16.50;99.90;;;;;;5067545;28;20187;-80
2021/04/29 09:20:54;;;;;;;0.57;0.50;;;16.70;99.90;;;;;;5063464;28;20290;-82
2021/04/29 09:23:31;;;;;;;0.47;0.47;;;16.70;99.90;;;;;;5059218;28;20193;-81
2021/04/29 09:25:59;;;;;;;0.53;0.50;;;17.00;99.90;;;;;;5055049;28;20547;-80
2021/04/29 09:28:52;;;;;;;0.47;0.47;;;17.30;99.90;;;;;;5081329;28;20180;-81
2021/04/29 09:31:26;;;;;;;1.77;0.90;;;17.70;99.90;;;;;;5061376;28;20638;-82
2021/04/29 09:33:55;;;;;;;0.67;0.67;;;17.90;99.90;;;;;;5064947;28;20660;-81
2021/04/29 09:36:33;;;;;;;1.10;0.63;;;18.20;99.90;;;;;;5087476;28;20550;-81
2021/04/29 09:39:04;;;;;;;0.87;0.67;;;18.20;99.90;;;;;;5070443;28;20756;-81
2021/04/29 09:41:33;;;;;;;0.77;0.77;;;18.20;99.90;;;;;;5067345;28;20204;-83
2021/04/29 09:44:02;;;;;;;0.27;0.27;;;18.10;99.90;;;;;;5064161;28;20212;-82
2021/04/29 09:46:47;;;;;;;1.40;0.50;;;18.90;99.90;;;;;;5063879;28;20211;-80
2021/04/29 09:49:24;;;;;;;4.10;1.10;;;19.00;99.90;;;;;;5066869;28;20188;-82
2021/04/29 09:51:51;;;;;;;0.87;0.87;;;18.70;99.90;;;;;;5062638;28;20212;-81
2021/04/29 09:54:34;;;;;;;0.97;0.57;;;18.40;99.90;;;;;;5070864;28;20191;-82
2021/04/29 09:57:07;;;;;;;0.73;0.73;;;17.90;99.90;;;;;;5088281;28;20214;-81
2021/04/29 09:59:35;;;;;;;2.10;1.90;;;17.60;99.90;;;;;;5073539;28;20660;-81
2021/04/29 10:02:01;;;;;;;0.60;0.60;;;17.80;99.90;;;;;;5087992;28;20192;-83
2021/04/29 10:04:28;;;;;;;0.90;0.50;;;17.60;99.90;;;;;;5071170;28;20708;-82
2021/04/29 10:07:00;;;;;;;0.40;0.33;;;17.10;99.90;;;;;;5090980;28;20608;-81
2021/04/29 10:09:31;;;;;;;0.40;0.40;;;16.20;99.90;;;;;;5067243;28;20581;-81
2021/04/29 10:12:06;;;;;;;0.47;0.47;;;15.00;99.90;;;;;;5082671;28;20628;-82
2021/04/29 10:14:34;;;;;;;0.40;0.40;;;14.00;99.90;;;;;;5070740;28;20286;-82
2021/04/29 10:17:06;;;;;;;0.33;0.33;;;13.30;99.90;;;;;;5063750;28;20282;-81
2021/04/29 10:19:36;;;;;;;0.20;0.20;;;12.80;99.90;;;;;;5079929;28;20182;-80
2021/04/29 10:22:02;;;;;;;0.30;0.30;;;12.60;99.90;;;;;;5075352;28;20233;-80
2021/04/29 10:24:28;;;;;;;0.27;0.27;;;12.80;99.90;;;;;;5069981;28;20216;-83
2021/04/29 10:27:08;;;;;;;0.20;0.20;;;12.90;99.90;;;;;;5066408;28;20189;-81
2021/04/29 10:29:34;;;;;;;0.10;0.10;;;13.00;99.90;;;;;;5087120;28;20209;-82
2021/04/29 10:32:01;;;;;;;0.30;0.30;;;12.90;99.90;;;;;;5093612;28;20187;-81
2021/04/29 10:34:43;;;;;;;0.10;0.10;;;12.70;99.90;;;;;;5061211;28;20722;-80
2021/04/29 10:37:16;;;;;;;0.30;0.30;;;12.60;99.90;;;;;;5054589;28;20182;-80
2021/04/29 10:39:55;;;;;;;0.70;0.40;;;12.60;99.90;;;;;;5079568;28;20188;-81
2021/04/29 10:42:24;;;;;;;0.10;0.10;;;12.60;99.90;;;;;;5069067;28;20183;-82
2021/04/29 10:44:58;;;;;;;0.27;0.27;;;12.90;99.90;;;;;;5078398;28;20452;-83
2021/04/29 10:47:29;;;;;;;0.10;0.10;;;13.30;99.90;;;;;;5064336;28;20675;-81
2021/04/29 10:50:10;;;;;;;0.10;0.10;;;13.50;99.90;;;;;;5064522;28;20296;-82
2021/04/29 10:52:56;;;;;;;0.10;0.10;;;13.70;99.90;;;;;;5069258;28;20204;-81
2021/04/29 10:55:36;;;;;;;0.30;0.30;;;14.20;99.90;;;;;;5063607;28;20176;-82
2021/04/29 10:58:04;;;;;;;0.30;0.27;;;14.60;99.90;;;;;;5070106;28;20273;-80
2021/04/29 11:00:32;;;;;;;0.37;0.37;;;14.80;99.90;;;;;;5083035;28;20197;-82
2021/04/29 11:02:59;;;;;;;0.20;0.20;;;15.00;99.90;;;;;;5061427;28;20281;-81
2021/04/29 11:05:26;;;;;;;0.30;0.30;;;15.10;99.90;;;;;;5083411;28;20315;-81
2021/04/29 11:07:53;;;;;;;1.00;0.40;;;15.40;99.90;;;;;;5085179;28;20185;-81
2021/04/29 11:10:23;;;;;;;0.47;0.47;;;15.60;99.90;;;;;;5066124;28;20214;-82
2021/04/29 11:12:56;;;;;;;1.20;0.40;;;15.80;99.90;;;;;;5056659;28;20207;-82
2021/04/29 11:15:34;;;;;;;0.30;0.30;;;15.70;99.90;;;;;;5070085;28;20240;-83
2021/04/29 11:18:09;;;;;;;0.60;0.60;;;15.40;99.90;;;;;;5074372;28;20810;-78
2021/04/29 11:20:53;;;;;;;0.80;0.43;;;15.50;99.90;;;;;;5053714;28;20212;-79
2021/04/29 11:23:42;;;;;;;0.40;0.40;;;15.80;99.90;;;;;;5059046;28;20217;-79
2021/04/29 11:26:16;;;;;;;0.20;0.20;;;16.00;99.90;;;;;;5071801;28;20199;-78
2021/04/29 11:28:45;;;;;;;0.67;0.67;;;16.10;99.90;;;;;;5067530;28;20264;-78
2021/04/29 11:31:11;;;;;;;0.20;0.20;;;16.30;99.90;;;;;;5057707;28;20216;-77
2021/04/29 11:33:46;;;;;;;0.60;0.50;;;16.10;99.90;;;;;;5075794;28;20199;-79
2021/04/29 11:36:21;;;;;;;0.10;0.10;;;15.90;99.90;;;;;;5076985;28;20180;-77
2021/04/29 11:38:58;;;;;;;0.20;0.20;;;16.00;99.90;;;;;;5059540;28;20195;-79
2021/04/29 11:41:26;;;;;;;0.20;0.20;;;16.20;99.90;;;;;;5087565;28;20207;-78
2021/04/29 11:44:06;;;;;;;0.33;0.33;;;16.40;99.90;;;;;;5062197;28;20230;-78
2021/04/29 11:46:34;;;;;;;0.40;0.40;;;16.40;99.90;;;;;;5069300;28;20193;-78
2021/04/29 11:49:08;;;;;;;0.40;0.40;;;16.70;99.90;;;;;;5068898;28;20185;-79
2021/04/29 11:51:44;;;;;;;0.73;0.63;;;16.80;99.90;;;;;;5068066;28;20218;-79
2021/04/29 11:54:12;;;;;;;0.47;0.47;;;16.80;99.90;;;;;;5070790;28;20601;-79
2021/04/29 11:56:40;;;;;;;0.40;0.40;;;16.90;99.90;;;;;;5065209;28;20675;-80
2021/04/29 11:59:08;;;;;;;1.00;0.87;;;16.70;99.90;;;;;;5057857;28;20187;-80
2021/04/29 12:01:37;;;;;;;0.50;0.50;;;16.40;99.90;;;;;;5074283;28;20296;-82
2021/04/29 12:04:17;;;;;;;1.47;1.37;;;16.40;99.90;;;;;;5055489;28;20247;-79
2021/04/29 12:06:50;;;;;;;0.73;0.73;;;16.70;99.90;;;;;;5079818;28;20188;-79
2021/04/29 12:09:16;;;;;;;0.40;0.40;;;16.80;99.90;;;;;;5079888;28;20189;-79
2021/04/29 12:11:42;;;;;;;0.87;0.87;;;16.80;99.90;;;;;;5082771;28;21058;-79
2021/04/29 12:14:08;;;;;;;1.43;0.97;;;16.60;99.90;;;;;;5064052;28;20191;-79
2021/04/29 12:16:34;;;;;;;0.60;0.60;;;16.70;99.90;;;;;;5069966;28;20180;-84
2021/04/29 12:19:00;;;;;;;1.27;1.23;;;17.00;99.90;;;;;;5068149;28;20671;-82
2021/04/29 12:21:28;;;;;;;0.20;0.20;;;17.20;99.90;;;;;;5064659;28;20623;-82
2021/04/29 12:24:01;;;;;;;0.20;0.20;;;17.30;99.90;;;;;;5081417;28;20185;-82
2021/04/29 12:26:35;;;;;;;0.50;0.50;;;17.40;99.90;;;;;;5078881;28;20193;-81
2021/04/29 12:29:07;;;;;;;0.67;0.67;;;17.80;99.90;;;;;;5067094;28;20481;-81
2021/04/29 12:31:34;;;;;;;0.40;0.40;;;18.10;99.90;;;;;;5077733;28;20299;-84
2021/04/29 12:34:17;;;;;;;0.30;0.30;;;18.30;99.90;;;;;;5081220;28;20185;-82
2021/04/29 12:36:51;;;;;;;0.37;0.37;;;18.20;99.90;;;;;;5088864;28;20211;-82
2021/04/29 12:39:22;;;;;;;0.90;0.53;;;18.30;99.90;;;;;;5061376;28;20176;-82
2021/04/29 12:42:00;;;;;;;0.20;0.20;;;18.50;99.90;;;;;;5066710;28;20727;-87
2021/04/29 12:44:44;;;;;;;0.40;0.40;;;18.20;99.90;;;;;;5078569;28;20271;-82
2021/04/29 12:47:23;;;;;;;0.40;0.30;;;18.00;99.90;;;;;;5070863;28;20263;-84
2021/04/29 12:50:24;;;;;;;0.33;0.27;;;17.80;99.90;;;;;;5056619;28;20688;-83
2021/04/29 12:52:51;;;;;;;0.80;0.30;;;17.70;99.90;;;;;;5060047;28;20216;-86
2021/04/29 12:55:22;;;;;;;0.37;0.37;;;17.40;99.90;;;;;;5076731;28;20248;-82